Time;durP1;ratioP1;P1;durP2;ratioP2;P2;SDS_P1;SDS_P2;PMS_P1;PMS_P2;Temp;Humidity;BMP_temperature;BMP_pressure;BME280_temperature;BME280_humidity;BME280_pressure;Samples;Min_cycle;Max_cycle;Signal;HPM_P1;HPM_P2
2023/09/26 00:02:15;;;;;;;11.90;9.80;;;;;;;;;;5079852;28;20459;-80
2023/09/26 00:04:43;;;;;;;13.37;10.67;;;;;;;;;;5081204;28;20487;-81
2023/09/26 00:07:10;;;;;;;14.73;10.53;;;;;;;;;;5081090;28;20462;-80
2023/09/26 00:09:37;;;;;;;12.03;10.20;;;;;;;;;;5079304;28;20446;-80
2023/09/26 00:12:05;;;;;;;12.50;10.53;;;;;;;;;;5081277;28;20524;-80
2023/09/26 00:14:33;;;;;;;13.63;11.90;;;;;;;;;;5080796;28;20452;-80
2023/09/26 00:17:00;;;;;;;18.53;12.53;;;;;;;;;;5075766;28;20909;-80
2023/09/26 00:19:29;;;;;;;16.40;11.83;;;;;;;;;;5061111;28;20939;-80
2023/09/26 00:21:56;;;;;;;13.77;12.27;;;;;;;;;;5061324;28;20464;-81
2023/09/26 00:24:23;;;;;;;13.10;11.20;;;;;;;;;;5060749;28;20484;-80
2023/09/26 00:26:51;;;;;;;14.30;11.10;;;;;;;;;;5066842;28;20963;-81
2023/09/26 00:29:18;;;;;;;14.00;10.87;;;;;;;;;;5066460;28;20551;-80
2023/09/26 00:31:45;;;;;;;23.90;11.37;;;;;;;;;;5064519;28;20496;-81
2023/09/26 00:34:13;;;;;;;12.47;9.80;;;;;;;;;;5065851;28;20452;-80
2023/09/26 00:36:41;;;;;;;12.73;9.47;;;;;;;;;;5064793;28;20477;-80
2023/09/26 00:39:08;;;;;;;16.73;12.20;;;;;;;;;;5065102;28;20463;-80
2023/09/26 00:41:35;;;;;;;16.33;11.17;;;;;;;;;;5064950;28;20495;-81
2023/09/26 00:44:03;;;;;;;10.57;9.47;;;;;;;;;;5064447;28;20453;-80
2023/09/26 00:46:30;;;;;;;11.23;10.03;;;;;;;;;;5063931;28;20469;-81
2023/09/26 00:48:58;;;;;;;15.83;11.73;;;;;;;;;;5064344;28;20444;-80
2023/09/26 00:51:25;;;;;;;15.17;11.43;;;;;;;;;;5064064;28;20519;-81
2023/09/26 00:53:53;;;;;;;12.33;9.63;;;;;;;;;;5064590;28;20943;-80
2023/09/26 00:56:20;;;;;;;10.50;9.40;;;;;;;;;;5064435;28;20480;-79
2023/09/26 00:58:48;;;;;;;12.53;11.10;;;;;;;;;;5065294;28;20476;-80
2023/09/26 01:01:16;;;;;;;15.40;11.60;;;;;;;;;;5063517;28;20483;-80
2023/09/26 01:03:45;;;;;;;14.40;11.50;;;;;;;;;;5063048;28;20508;-80
2023/09/26 01:06:12;;;;;;;15.80;10.70;;;;;;;;;;5063806;28;20459;-80
2023/09/26 01:08:40;;;;;;;16.47;10.57;;;;;;;;;;5062833;28;20452;-80
2023/09/26 01:11:09;;;;;;;13.40;10.70;;;;;;;;;;5063371;28;20476;-81
2023/09/26 01:13:36;;;;;;;12.67;9.07;;;;;;;;;;5062976;28;20551;-80
2023/09/26 01:16:15;;;;;;;12.63;11.33;;;;;;;;;;5062606;28;20856;-80
2023/09/26 01:18:42;;;;;;;12.00;10.37;;;;;;;;;;5063849;28;20915;-79
2023/09/26 01:21:09;;;;;;;12.70;9.10;;;;;;;;;;5063597;28;20482;-80
2023/09/26 01:23:37;;;;;;;10.50;9.40;;;;;;;;;;5063308;28;21032;-79
2023/09/26 01:26:06;;;;;;;13.37;8.87;;;;;;;;;;5064063;28;20453;-79
2023/09/26 01:28:33;;;;;;;12.17;10.27;;;;;;;;;;5064648;28;20965;-79
2023/09/26 01:31:00;;;;;;;11.80;10.50;;;;;;;;;;5063870;28;20476;-80
2023/09/26 01:33:28;;;;;;;15.33;11.00;;;;;;;;;;5064507;28;20444;-80
2023/09/26 01:35:55;;;;;;;11.17;9.23;;;;;;;;;;5064369;28;20526;-80
2023/09/26 01:38:24;;;;;;;13.47;11.23;;;;;;;;;;5063481;28;20460;-80
2023/09/26 01:40:51;;;;;;;18.03;12.30;;;;;;;;;;5063278;28;20480;-79
2023/09/26 01:43:20;;;;;;;19.93;12.27;;;;;;;;;;5063294;28;20445;-79
2023/09/26 01:45:47;;;;;;;14.97;11.73;;;;;;;;;;5064052;28;20452;-80
2023/09/26 01:48:14;;;;;;;15.70;11.10;;;;;;;;;;5069990;28;20452;-79
2023/09/26 01:50:41;;;;;;;14.23;12.03;;;;;;;;;;5083533;28;20487;-80
2023/09/26 01:53:10;;;;;;;16.13;11.00;;;;;;;;;;5083870;28;20805;-80
2023/09/26 01:55:37;;;;;;;17.70;11.90;;;;;;;;;;5083560;28;20505;-79
2023/09/26 01:58:04;;;;;;;14.70;10.63;;;;;;;;;;5082790;28;20462;-80
2023/09/26 02:00:32;;;;;;;15.03;11.70;;;;;;;;;;5082655;28;20478;-80
2023/09/26 02:03:00;;;;;;;15.37;12.33;;;;;;;;;;5083264;28;20973;-80
2023/09/26 02:05:27;;;;;;;17.70;13.23;;;;;;;;;;5083032;28;20456;-80
2023/09/26 02:07:54;;;;;;;18.70;13.30;;;;;;;;;;5082007;28;20448;-79
2023/09/26 02:10:21;;;;;;;17.80;12.30;;;;;;;;;;5082914;28;20478;-80
2023/09/26 02:12:50;;;;;;;16.20;11.90;;;;;;;;;;5082278;28;20452;-79
2023/09/26 02:15:17;;;;;;;16.83;12.50;;;;;;;;;;5082266;28;20470;-79
2023/09/26 02:17:45;;;;;;;20.93;14.60;;;;;;;;;;5082676;28;20487;-79
2023/09/26 02:20:14;;;;;;;23.40;17.40;;;;;;;;;;5083068;28;20460;-79
2023/09/26 02:22:42;;;;;;;21.90;16.90;;;;;;;;;;5081104;28;20463;-79
2023/09/26 02:25:10;;;;;;;31.00;16.80;;;;;;;;;;5061946;28;20441;-79
2023/09/26 02:27:37;;;;;;;32.50;19.10;;;;;;;;;;5070338;28;20451;-80
2023/09/26 02:30:05;;;;;;;32.73;18.00;;;;;;;;;;5081239;28;20482;-80
2023/09/26 02:32:33;;;;;;;33.40;20.40;;;;;;;;;;5081331;28;20494;-80
2023/09/26 02:35:01;;;;;;;30.23;17.43;;;;;;;;;;5080494;28;20459;-80
2023/09/26 02:37:29;;;;;;;29.07;18.77;;;;;;;;;;5081325;28;20492;-79
2023/09/26 02:39:56;;;;;;;56.23;20.43;;;;;;;;;;5081431;28;20483;-79
2023/09/26 02:42:23;;;;;;;40.63;19.50;;;;;;;;;;5073965;28;20467;-79
2023/09/26 02:44:50;;;;;;;26.60;17.43;;;;;;;;;;5061220;28;20461;-79
2023/09/26 02:47:17;;;;;;;32.20;17.93;;;;;;;;;;5061607;28;20458;-79
2023/09/26 02:49:44;;;;;;;28.60;19.23;;;;;;;;;;5059813;28;20449;-79
2023/09/26 02:52:13;;;;;;;37.60;19.50;;;;;;;;;;5061821;28;20449;-79
2023/09/26 02:54:40;;;;;;;61.70;24.30;;;;;;;;;;5060956;28;20543;-79
2023/09/26 02:57:07;;;;;;;35.30;19.63;;;;;;;;;;5061463;28;21057;-79
2023/09/26 02:59:34;;;;;;;39.63;19.97;;;;;;;;;;5060852;28;20448;-80
2023/09/26 03:02:02;;;;;;;97.67;23.10;;;;;;;;;;5061474;28;20453;-80
2023/09/26 03:04:30;;;;;;;50.90;22.13;;;;;;;;;;5061279;28;20448;-80
2023/09/26 03:06:57;;;;;;;100.57;22.50;;;;;;;;;;5061191;28;20445;-80
2023/09/26 03:09:25;;;;;;;46.00;20.03;;;;;;;;;;5060854;28;20484;-80
2023/09/26 03:11:52;;;;;;;62.40;19.07;;;;;;;;;;5060685;28;20507;-80
2023/09/26 03:14:20;;;;;;;52.17;18.27;;;;;;;;;;5078035;28;21019;-80
2023/09/26 03:16:47;;;;;;;45.17;19.10;;;;;;;;;;5081310;28;20491;-79
2023/09/26 03:19:16;;;;;;;52.67;20.20;;;;;;;;;;5080821;28;20456;-79
2023/09/26 03:21:43;;;;;;;31.70;19.40;;;;;;;;;;5082068;28;20468;-80
2023/09/26 03:24:11;;;;;;;31.43;19.10;;;;;;;;;;5081254;28;20444;-80
2023/09/26 03:26:40;;;;;;;70.50;20.60;;;;;;;;;;5079282;28;20455;-80
2023/09/26 03:29:07;;;;;;;45.17;20.27;;;;;;;;;;5060161;28;20452;-80
2023/09/26 03:31:34;;;;;;;42.33;19.83;;;;;;;;;;5060753;28;21009;-80
2023/09/26 03:34:02;;;;;;;37.57;18.77;;;;;;;;;;5061470;28;20443;-80
2023/09/26 03:36:29;;;;;;;43.13;19.90;;;;;;;;;;5060352;28;20519;-80
2023/09/26 03:38:56;;;;;;;65.97;19.83;;;;;;;;;;5061270;28;20456;-80
2023/09/26 03:41:24;;;;;;;33.80;21.00;;;;;;;;;;5061095;28;20503;-80
2023/09/26 03:43:52;;;;;;;72.23;20.20;;;;;;;;;;5060338;28;20811;-80
2023/09/26 03:46:19;;;;;;;75.90;21.57;;;;;;;;;;5059151;28;20456;-80
2023/09/26 03:48:46;;;;;;;94.43;21.97;;;;;;;;;;5059395;28;20453;-80
2023/09/26 03:51:14;;;;;;;85.50;22.70;;;;;;;;;;5059461;28;20485;-80
2023/09/26 03:53:42;;;;;;;108.97;22.93;;;;;;;;;;5059722;28;20459;-80
2023/09/26 03:56:10;;;;;;;164.00;27.27;;;;;;;;;;5059221;28;20457;-80
2023/09/26 03:58:37;;;;;;;189.60;28.20;;;;;;;;;;5059783;28;20457;-80
2023/09/26 04:01:12;;;;;;;195.87;29.67;;;;;;;;;;5059169;28;20477;-81
2023/09/26 04:03:39;;;;;;;94.53;25.70;;;;;;;;;;5059687;28;20462;-81
2023/09/26 04:06:07;;;;;;;102.47;24.97;;;;;;;;;;5059543;28;20452;-80
2023/09/26 04:08:34;;;;;;;135.03;25.53;;;;;;;;;;5059619;28;20819;-77
2023/09/26 04:11:01;;;;;;;104.17;26.63;;;;;;;;;;5060532;28;20484;-81
2023/09/26 04:13:28;;;;;;;107.10;25.13;;;;;;;;;;5061554;28;20453;-80
2023/09/26 04:15:56;;;;;;;54.30;19.63;;;;;;;;;;5060935;28;20460;-80
2023/09/26 04:18:24;;;;;;;54.83;19.80;;;;;;;;;;5060537;28;20495;-80
2023/09/26 04:20:51;;;;;;;108.10;22.80;;;;;;;;;;5061162;28;20486;-80
2023/09/26 04:23:19;;;;;;;78.13;20.30;;;;;;;;;;5061776;28;20801;-80
2023/09/26 04:25:46;;;;;;;97.53;22.90;;;;;;;;;;5060071;28;20432;-80
2023/09/26 04:28:13;;;;;;;65.93;22.97;;;;;;;;;;5059152;28;20449;-80
2023/09/26 04:30:40;;;;;;;43.27;22.67;;;;;;;;;;5060462;28;20829;-81
2023/09/26 04:33:08;;;;;;;68.23;23.07;;;;;;;;;;5060486;28;20460;-80
2023/09/26 04:35:37;;;;;;;44.63;23.30;;;;;;;;;;5060533;28;20483;-80
2023/09/26 04:38:04;;;;;;;45.70;22.30;;;;;;;;;;5059359;28;20527;-80
2023/09/26 04:40:31;;;;;;;36.97;21.77;;;;;;;;;;5059673;28;20465;-81
2023/09/26 04:43:00;;;;;;;32.37;20.50;;;;;;;;;;5061203;28;20453;-80
2023/09/26 04:45:30;;;;;;;34.70;20.27;;;;;;;;;;5060542;28;20448;-81
2023/09/26 04:47:58;;;;;;;34.77;21.77;;;;;;;;;;5061426;28;20943;-80
2023/09/26 04:50:25;;;;;;;42.33;25.90;;;;;;;;;;5061435;28;20476;-81
2023/09/26 04:52:54;;;;;;;69.00;21.10;;;;;;;;;;5061796;28;20456;-81
2023/09/26 04:55:21;;;;;;;50.13;23.30;;;;;;;;;;5060459;28;20469;-81
2023/09/26 04:57:48;;;;;;;63.90;22.67;;;;;;;;;;5060198;28;20538;-81
2023/09/26 05:00:18;;;;;;;40.90;22.13;;;;;;;;;;5060529;28;20495;-80
2023/09/26 05:02:45;;;;;;;29.90;18.43;;;;;;;;;;5059847;28;20449;-80
2023/09/26 05:05:13;;;;;;;32.97;19.43;;;;;;;;;;5059696;28;20855;-80
2023/09/26 05:07:42;;;;;;;33.63;18.00;;;;;;;;;;5060000;28;20461;-80
2023/09/26 05:10:11;;;;;;;41.43;20.77;;;;;;;;;;5060448;28;20958;-80
2023/09/26 05:12:40;;;;;;;46.37;20.93;;;;;;;;;;5060348;28;20457;-81
2023/09/26 05:15:12;;;;;;;44.90;20.57;;;;;;;;;;5063167;28;20811;-80
2023/09/26 05:17:39;;;;;;;50.27;23.70;;;;;;;;;;5061208;28;20480;-80
2023/09/26 05:20:10;;;;;;;44.93;22.97;;;;;;;;;;5062890;28;20569;-80
2023/09/26 05:22:41;;;;;;;40.53;20.67;;;;;;;;;;5062405;28;20449;-80
2023/09/26 05:25:09;;;;;;;43.97;21.30;;;;;;;;;;5063233;28;20433;-79
2023/09/26 05:27:38;;;;;;;45.13;23.53;;;;;;;;;;5061455;28;20512;-79
2023/09/26 05:30:07;;;;;;;38.70;23.07;;;;;;;;;;5087765;28;20850;-80
2023/09/26 05:32:34;;;;;;;38.10;19.03;;;;;;;;;;5100419;28;20446;-80
2023/09/26 05:35:01;;;;;;;34.07;21.47;;;;;;;;;;5100701;28;20964;-80
2023/09/26 05:37:28;;;;;;;34.30;20.10;;;;;;;;;;5101057;28;20486;-79
2023/09/26 05:39:55;;;;;;;26.50;17.27;;;;;;;;;;5101125;28;20463;-79
2023/09/26 05:42:23;;;;;;;31.33;19.13;;;;;;;;;;5100682;28;20466;-79
2023/09/26 05:44:51;;;;;;;25.73;17.67;;;;;;;;;;5100491;28;20442;-79
2023/09/26 05:47:18;;;;;;;28.80;17.60;;;;;;;;;;5100978;28;20461;-80
2023/09/26 05:49:45;;;;;;;30.77;18.17;;;;;;;;;;5100949;28;20859;-79
2023/09/26 05:52:13;;;;;;;34.00;16.67;;;;;;;;;;5100733;28;20442;-79
2023/09/26 05:54:40;;;;;;;28.47;17.57;;;;;;;;;;5100905;28;20929;-79
2023/09/26 05:57:07;;;;;;;32.60;16.30;;;;;;;;;;5100823;28;20490;-79
2023/09/26 05:59:34;;;;;;;34.53;17.47;;;;;;;;;;5101207;28;20449;-79
2023/09/26 06:02:02;;;;;;;35.57;16.57;;;;;;;;;;5101995;28;20475;-79
2023/09/26 06:04:30;;;;;;;31.23;17.70;;;;;;;;;;5102683;28;20894;-79
2023/09/26 06:06:57;;;;;;;72.10;17.70;;;;;;;;;;5102666;28;20461;-79
2023/09/26 06:09:24;;;;;;;96.50;15.70;;;;;;;;;;5102091;28;20538;-79
2023/09/26 06:11:51;;;;;;;48.17;17.47;;;;;;;;;;5102670;28;20565;-79
2023/09/26 06:14:18;;;;;;;97.53;19.43;;;;;;;;;;5102265;28;20454;-80
2023/09/26 06:16:45;;;;;;;76.70;18.67;;;;;;;;;;5100963;28;20811;-80
2023/09/26 06:19:14;;;;;;;99.03;17.70;;;;;;;;;;5100473;28;20466;-79
2023/09/26 06:21:41;;;;;;;90.33;17.57;;;;;;;;;;5099809;28;20805;-79
2023/09/26 06:24:09;;;;;;;67.50;13.67;;;;;;;;;;5098296;28;20442;-80
2023/09/26 06:26:36;;;;;;;65.10;17.67;;;;;;;;;;5098415;28;20451;-81
2023/09/26 06:29:03;;;;;;;54.67;15.07;;;;;;;;;;5079491;28;20543;-81
2023/09/26 06:31:30;;;;;;;57.23;13.70;;;;;;;;;;5057732;28;20970;-81
2023/09/26 06:34:00;;;;;;;44.80;12.47;;;;;;;;;;5058498;28;20452;-81
2023/09/26 06:36:30;;;;;;;44.97;11.97;;;;;;;;;;5057499;28;20441;-81
2023/09/26 06:38:57;;;;;;;46.80;11.77;;;;;;;;;;5057563;28;20520;-81
2023/09/26 06:41:25;;;;;;;27.70;12.43;;;;;;;;;;5058145;28;20467;-81
2023/09/26 06:43:52;;;;;;;13.57;11.90;;;;;;;;;;5060181;28;20460;-81
2023/09/26 06:46:19;;;;;;;60.97;11.43;;;;;;;;;;5058411;28;20448;-79
2023/09/26 06:48:46;;;;;;;20.83;11.30;;;;;;;;;;5068874;28;20814;-81
2023/09/26 06:51:13;;;;;;;49.20;12.10;;;;;;;;;;5078106;28;20487;-81
2023/09/26 06:53:42;;;;;;;60.93;13.43;;;;;;;;;;5078056;28;20456;-81
2023/09/26 06:56:09;;;;;;;37.47;12.47;;;;;;;;;;5078001;28;20992;-81
2023/09/26 06:58:37;;;;;;;19.90;13.63;;;;;;;;;;5077418;28;20479;-81
2023/09/26 07:01:04;;;;;;;19.20;12.50;;;;;;;;;;5078697;28;20551;-81
2023/09/26 07:03:32;;;;;;;29.00;12.70;;;;;;;;;;5079470;28;20436;-81
2023/09/26 07:05:59;;;;;;;79.17;15.43;;;;;;;;;;5079761;28;20921;-81
2023/09/26 07:08:26;;;;;;;35.87;13.67;;;;;;;;;;5062790;28;20456;-81
2023/09/26 07:10:54;;;;;;;21.87;13.30;;;;;;;;;;5062677;28;20525;-80
2023/09/26 07:13:22;;;;;;;46.60;12.47;;;;;;;;;;5078344;28;20459;-80
2023/09/26 07:15:59;;;;;;;25.23;11.87;;;;;;;;;;5079623;28;20444;-81
2023/09/26 07:18:26;;;;;;;48.50;13.63;;;;;;;;;;5079808;28;20492;-82
2023/09/26 07:20:54;;;;;;;17.03;12.60;;;;;;;;;;5079506;28;20480;-82
2023/09/26 07:23:21;;;;;;;24.83;13.27;;;;;;;;;;5079345;28;20468;-81
2023/09/26 07:25:48;;;;;;;15.70;12.87;;;;;;;;;;5078687;28;20470;-81
2023/09/26 07:28:16;;;;;;;20.90;14.77;;;;;;;;;;5078075;28;20452;-81
2023/09/26 07:30:46;;;;;;;30.07;12.97;;;;;;;;;;5076006;28;20567;-82
2023/09/26 07:33:14;;;;;;;47.30;13.60;;;;;;;;;;5077082;28;20436;-81
2023/09/26 07:35:42;;;;;;;34.17;12.77;;;;;;;;;;5076362;28;20451;-81
2023/09/26 07:38:09;;;;;;;19.53;13.50;;;;;;;;;;5078092;28;20498;-81
2023/09/26 07:40:36;;;;;;;27.27;13.27;;;;;;;;;;5075866;28;20482;-81
2023/09/26 07:43:03;;;;;;;18.30;13.63;;;;;;;;;;5076497;28;20450;-81
2023/09/26 07:45:31;;;;;;;23.57;13.80;;;;;;;;;;5076565;28;20964;-81
2023/09/26 07:47:59;;;;;;;15.47;13.00;;;;;;;;;;5076158;28;20440;-81
2023/09/26 07:50:26;;;;;;;16.70;12.17;;;;;;;;;;5075628;28;20534;-81
2023/09/26 07:52:53;;;;;;;20.53;14.10;;;;;;;;;;5076023;28;20534;-81
2023/09/26 07:55:21;;;;;;;19.30;15.00;;;;;;;;;;5076692;28;20444;-81
2023/09/26 07:57:48;;;;;;;18.47;15.13;;;;;;;;;;5077130;28;20497;-82
2023/09/26 08:00:15;;;;;;;17.40;13.70;;;;;;;;;;5076293;28;20475;-81
2023/09/26 08:02:44;;;;;;;21.70;15.00;;;;;;;;;;5076609;28;20802;-81
2023/09/26 08:05:11;;;;;;;22.40;13.90;;;;;;;;;;5076646;28;20448;-81
2023/09/26 08:07:42;;;;;;;22.30;15.60;;;;;;;;;;5076122;28;20551;-81
2023/09/26 08:10:09;;;;;;;20.33;14.93;;;;;;;;;;5076123;28;20467;-81
2023/09/26 08:12:37;;;;;;;19.33;15.10;;;;;;;;;;5076402;28;20440;-81
2023/09/26 08:15:04;;;;;;;21.73;17.07;;;;;;;;;;5075419;28;20438;-81
2023/09/26 08:17:32;;;;;;;20.63;14.60;;;;;;;;;;5076280;28;20573;-82
2023/09/26 08:20:00;;;;;;;25.13;18.13;;;;;;;;;;5076563;28;20468;-81
2023/09/26 08:22:27;;;;;;;20.53;16.30;;;;;;;;;;5075889;28;20448;-82
2023/09/26 08:24:55;;;;;;;18.47;14.17;;;;;;;;;;5076987;28;20455;-82
2023/09/26 08:27:24;;;;;;;22.83;17.63;;;;;;;;;;5076527;28;20820;-82
2023/09/26 08:29:51;;;;;;;21.13;15.00;;;;;;;;;;5076310;28;20448;-82
2023/09/26 08:32:18;;;;;;;21.30;17.53;;;;;;;;;;5076314;28;20463;-82
2023/09/26 08:34:45;;;;;;;26.57;17.40;;;;;;;;;;5057327;28;20471;-81
2023/09/26 08:37:14;;;;;;;20.70;16.00;;;;;;;;;;5055823;28;20519;-82
2023/09/26 08:39:43;;;;;;;21.40;15.50;;;;;;;;;;5056854;28;20875;-82
2023/09/26 08:42:11;;;;;;;17.50;14.17;;;;;;;;;;5062984;28;20529;-82
2023/09/26 08:44:38;;;;;;;18.93;16.10;;;;;;;;;;5059362;28;20820;-82
2023/09/26 08:47:06;;;;;;;19.30;16.30;;;;;;;;;;5064987;28;20469;-80
2023/09/26 08:49:34;;;;;;;20.30;16.23;;;;;;;;;;5080699;28;20450;-82
2023/09/26 08:52:04;;;;;;;19.13;14.50;;;;;;;;;;5080887;28;20486;-82
2023/09/26 08:54:33;;;;;;;17.57;14.80;;;;;;;;;;5089356;28;20483;-82
2023/09/26 08:57:00;;;;;;;16.73;13.10;;;;;;;;;;5080924;28;20829;-82
2023/09/26 08:59:28;;;;;;;21.80;15.30;;;;;;;;;;5081007;28;20553;-81
2023/09/26 09:01:56;;;;;;;17.93;15.07;;;;;;;;;;5081018;28;20472;-82
2023/09/26 09:04:23;;;;;;;18.90;16.27;;;;;;;;;;5080525;28;20455;-81
2023/09/26 09:07:02;;;;;;;17.93;15.07;;;;;;;;;;5079521;28;20463;-81
2023/09/26 09:09:29;;;;;;;16.57;14.73;;;;;;;;;;5079731;28;20432;-81
2023/09/26 09:11:58;;;;;;;19.00;15.10;;;;;;;;;;5079632;28;20475;-82
2023/09/26 09:14:32;;;;;;;18.70;15.43;;;;;;;;;;5080646;28;20452;-82
2023/09/26 09:16:59;;;;;;;19.77;16.30;;;;;;;;;;5080246;28;20431;-77
2023/09/26 09:19:44;;;;;;;18.43;16.43;;;;;;;;;;5083738;28;20889;-75
2023/09/26 09:22:15;;;;;;;21.97;17.23;;;;;;;;;;5083611;28;20459;-76
2023/09/26 09:24:42;;;;;;;22.17;19.80;;;;;;;;;;5083485;28;20443;-75
2023/09/26 09:27:10;;;;;;;20.83;17.20;;;;;;;;;;5077493;28;20461;-75
2023/09/26 09:29:37;;;;;;;19.80;17.80;;;;;;;;;;5079647;28;20446;-75
2023/09/26 09:32:07;;;;;;;20.57;17.77;;;;;;;;;;5054783;28;20452;-75
2023/09/26 09:34:34;;;;;;;20.93;18.73;;;;;;;;;;5073539;28;20497;-75
2023/09/26 09:37:02;;;;;;;21.10;17.30;;;;;;;;;;5069041;28;20452;-75
2023/09/26 09:39:29;;;;;;;20.50;16.90;;;;;;;;;;5071128;28;20494;-75
2023/09/26 09:41:58;;;;;;;21.90;17.33;;;;;;;;;;5074389;28;20475;-75
2023/09/26 09:44:26;;;;;;;22.00;18.30;;;;;;;;;;5074579;28;20452;-75
2023/09/26 09:46:57;;;;;;;19.53;17.43;;;;;;;;;;5070235;28;20933;-75
2023/09/26 09:49:28;;;;;;;20.00;17.93;;;;;;;;;;5086449;28;20967;-75
2023/09/26 09:51:57;;;;;;;20.43;18.23;;;;;;;;;;5070364;28;20524;-75
2023/09/26 09:54:26;;;;;;;20.00;17.90;;;;;;;;;;5086261;28;20447;-74
2023/09/26 09:56:54;;;;;;;23.63;17.67;;;;;;;;;;5075006;28;20825;-75
2023/09/26 09:59:22;;;;;;;23.20;16.70;;;;;;;;;;5081745;28;20586;-74
2023/09/26 10:01:52;;;;;;;19.70;17.60;;;;;;;;;;5082903;28;20468;-75
2023/09/26 10:04:20;;;;;;;18.90;16.90;;;;;;;;;;5082835;28;20451;-75
2023/09/26 10:06:47;;;;;;;20.40;18.30;;;;;;;;;;5074441;28;20455;-75
2023/09/26 10:09:16;;;;;;;20.13;16.50;;;;;;;;;;5075999;28;20463;-75
2023/09/26 10:11:43;;;;;;;19.03;17.13;;;;;;;;;;5064463;28;20480;-75
2023/09/26 10:14:11;;;;;;;19.07;17.07;;;;;;;;;;5080085;28;20443;-75
2023/09/26 10:16:38;;;;;;;18.93;16.37;;;;;;;;;;5084302;28;20449;-75
2023/09/26 10:19:07;;;;;;;18.60;16.73;;;;;;;;;;5082452;28;20798;-75
2023/09/26 10:21:35;;;;;;;18.07;16.20;;;;;;;;;;5072893;28;20542;-75
2023/09/26 10:24:23;;;;;;;18.63;16.77;;;;;;;;;;5058775;28;20456;-75
2023/09/26 10:26:51;;;;;;;18.37;16.57;;;;;;;;;;5078984;28;20493;-75
2023/09/26 10:29:25;;;;;;;16.30;14.70;;;;;;;;;;5080674;28;20447;-75
2023/09/26 10:31:54;;;;;;;17.33;15.60;;;;;;;;;;5065603;28;20471;-75
2023/09/26 10:34:25;;;;;;;15.50;13.93;;;;;;;;;;5081874;28;20463;-75
2023/09/26 10:36:52;;;;;;;17.43;13.77;;;;;;;;;;5082396;28;20513;-75
2023/09/26 10:39:19;;;;;;;16.20;14.50;;;;;;;;;;5081965;28;20498;-75
2023/09/26 10:41:46;;;;;;;14.80;13.30;;;;;;;;;;5073785;28;20482;-75
2023/09/26 10:44:13;;;;;;;16.10;14.20;;;;;;;;;;5067379;28;20452;-76
2023/09/26 10:46:40;;;;;;;16.40;14.37;;;;;;;;;;5071922;28;20459;-75
2023/09/26 10:49:07;;;;;;;13.67;12.23;;;;;;;;;;5076393;28;20801;-76
2023/09/26 10:51:36;;;;;;;13.07;11.67;;;;;;;;;;5063796;28;20480;-75
2023/09/26 10:54:03;;;;;;;15.30;11.90;;;;;;;;;;5072179;28;20792;-76
2023/09/26 10:56:30;;;;;;;15.70;10.73;;;;;;;;;;5073421;28;20821;-76
2023/09/26 10:58:57;;;;;;;12.73;11.20;;;;;;;;;;5077574;28;20492;-76
2023/09/26 11:01:37;;;;;;;11.63;10.53;;;;;;;;;;5077267;28;20478;-76
2023/09/26 11:04:05;;;;;;;10.60;9.60;;;;;;;;;;5074974;28;20443;-76
2023/09/26 11:06:32;;;;;;;10.10;8.27;;;;;;;;;;5081512;28;20448;-76
2023/09/26 11:09:00;;;;;;;11.33;10.23;;;;;;;;;;5076745;28;20820;-76
2023/09/26 11:11:27;;;;;;;10.63;9.60;;;;;;;;;;5052687;28;20468;-75
2023/09/26 11:13:55;;;;;;;10.10;8.83;;;;;;;;;;5061308;28;20476;-75
2023/09/26 11:16:22;;;;;;;11.20;8.90;;;;;;;;;;5060586;28;20451;-75
2023/09/26 11:18:54;;;;;;;9.63;8.63;;;;;;;;;;5084435;28;21001;-75
2023/09/26 11:21:21;;;;;;;10.50;6.90;;;;;;;;;;5084776;28;20500;-76
2023/09/26 11:23:48;;;;;;;9.53;6.53;;;;;;;;;;5081446;28;20474;-75
2023/09/26 11:26:17;;;;;;;7.00;6.23;;;;;;;;;;5081041;28;20456;-75
2023/09/26 11:28:44;;;;;;;9.83;6.97;;;;;;;;;;5074530;28;20463;-75
2023/09/26 11:31:11;;;;;;;9.07;6.70;;;;;;;;;;5069973;28;20482;-75
2023/09/26 11:33:38;;;;;;;7.33;6.53;;;;;;;;;;5081040;28;20942;-75
2023/09/26 11:36:06;;;;;;;10.40;6.00;;;;;;;;;;5072399;28;20486;-76
2023/09/26 11:38:34;;;;;;;5.83;4.83;;;;;;;;;;5073294;28;20938;-76
2023/09/26 11:41:01;;;;;;;6.63;5.40;;;;;;;;;;5084322;28;20521;-76
2023/09/26 11:43:39;;;;;;;7.50;5.60;;;;;;;;;;5059219;28;21001;-76
2023/09/26 11:46:08;;;;;;;9.40;7.00;;;;;;;;;;5072568;28;20926;-75
2023/09/26 11:48:35;;;;;;;5.70;5.20;;;;;;;;;;5080817;28;20975;-75
2023/09/26 11:51:03;;;;;;;17.03;7.00;;;;;;;;;;5080910;28;20464;-75
2023/09/26 11:53:30;;;;;;;5.63;5.10;;;;;;;;;;5080921;28;20604;-75
2023/09/26 11:55:59;;;;;;;8.70;6.47;;;;;;;;;;5076779;28;20464;-75
2023/09/26 11:58:26;;;;;;;7.00;5.50;;;;;;;;;;5068759;28;20546;-76
2023/09/26 12:00:54;;;;;;;8.00;6.57;;;;;;;;;;5067107;28;20501;-76
2023/09/26 12:03:22;;;;;;;6.90;6.30;;;;;;;;;;5060894;28;20464;-75
2023/09/26 12:05:49;;;;;;;6.57;4.90;;;;;;;;;;5080078;28;20543;-76
2023/09/26 12:08:16;;;;;;;6.30;5.70;;;;;;;;;;5073721;28;20461;-75
2023/09/26 12:10:44;;;;;;;6.73;5.30;;;;;;;;;;5060175;28;20469;-76
2023/09/26 12:13:11;;;;;;;6.50;5.90;;;;;;;;;;5058268;28;20488;-76
2023/09/26 12:15:38;;;;;;;6.37;5.80;;;;;;;;;;5072313;28;20821;-75
2023/09/26 12:18:07;;;;;;;6.80;5.90;;;;;;;;;;5067028;28;20458;-75
2023/09/26 12:20:35;;;;;;;7.07;5.00;;;;;;;;;;5078302;28;20510;-75
2023/09/26 12:23:02;;;;;;;6.70;6.00;;;;;;;;;;5087285;28;20459;-76
2023/09/26 12:25:30;;;;;;;7.23;5.40;;;;;;;;;;5078980;28;20452;-76
2023/09/26 12:27:57;;;;;;;8.03;6.37;;;;;;;;;;5082942;28;20451;-75
2023/09/26 12:30:24;;;;;;;6.13;5.57;;;;;;;;;;5073965;28;21007;-75
2023/09/26 12:32:52;;;;;;;5.63;5.17;;;;;;;;;;5070497;28;20455;-75
2023/09/26 12:35:21;;;;;;;7.17;5.43;;;;;;;;;;5079619;28;20468;-75
2023/09/26 12:37:48;;;;;;;5.60;5.10;;;;;;;;;;5080821;28;21119;-75
2023/09/26 12:40:15;;;;;;;5.10;4.60;;;;;;;;;;5083652;28;20496;-76
2023/09/26 12:42:42;;;;;;;4.80;4.30;;;;;;;;;;5072361;28;20945;-75
2023/09/26 12:45:10;;;;;;;12.97;7.20;;;;;;;;;;5070595;28;20551;-75
2023/09/26 12:47:37;;;;;;;6.37;5.73;;;;;;;;;;5076435;28;20972;-75
2023/09/26 12:50:08;;;;;;;5.90;5.33;;;;;;;;;;5086719;28;20841;-75
2023/09/26 12:52:37;;;;;;;6.00;5.40;;;;;;;;;;5078481;28;20459;-75
2023/09/26 12:55:04;;;;;;;6.27;5.63;;;;;;;;;;5083173;28;20473;-75
2023/09/26 12:57:31;;;;;;;10.30;5.70;;;;;;;;;;5064650;28;20456;-77
2023/09/26 12:59:59;;;;;;;7.30;6.00;;;;;;;;;;5070033;28;20499;-75
2023/09/26 13:02:26;;;;;;;5.93;5.33;;;;;;;;;;5086763;28;20482;-75
2023/09/26 13:04:54;;;;;;;7.03;5.40;;;;;;;;;;5083035;28;20456;-75
2023/09/26 13:07:21;;;;;;;6.63;5.30;;;;;;;;;;5081095;28;20515;-75
2023/09/26 13:09:50;;;;;;;10.63;6.80;;;;;;;;;;5081613;28;20484;-76
2023/09/26 13:12:17;;;;;;;8.77;5.27;;;;;;;;;;5083323;28;20467;-76
2023/09/26 13:14:44;;;;;;;8.57;5.43;;;;;;;;;;5069788;28;20456;-76
2023/09/26 13:17:12;;;;;;;11.17;5.47;;;;;;;;;;5078420;28;20929;-76
2023/09/26 13:19:40;;;;;;;6.23;5.27;;;;;;;;;;5086227;28;21036;-76
2023/09/26 13:22:07;;;;;;;10.43;5.47;;;;;;;;;;5072605;28;20457;-75
2023/09/26 13:24:35;;;;;;;5.73;5.20;;;;;;;;;;5076022;28;20481;-75
2023/09/26 13:27:04;;;;;;;7.20;5.60;;;;;;;;;;5085444;28;20798;-75
2023/09/26 13:29:31;;;;;;;9.20;5.17;;;;;;;;;;5086309;28;20521;-75
2023/09/26 13:31:58;;;;;;;5.80;5.30;;;;;;;;;;5085402;28;20475;-75
2023/09/26 13:34:25;;;;;;;9.07;6.20;;;;;;;;;;5074778;28;20470;-75
2023/09/26 13:36:52;;;;;;;11.10;6.67;;;;;;;;;;5071243;28;20467;-75
2023/09/26 13:39:20;;;;;;;6.63;5.60;;;;;;;;;;5061642;28;20443;-75
2023/09/26 13:41:47;;;;;;;4.83;4.33;;;;;;;;;;5074447;28;20566;-75
2023/09/26 13:44:15;;;;;;;6.47;5.63;;;;;;;;;;5075026;28;20918;-75
2023/09/26 13:46:42;;;;;;;8.63;5.50;;;;;;;;;;5074682;28;20450;-75
2023/09/26 13:49:09;;;;;;;7.50;5.90;;;;;;;;;;5083274;28;20945;-75
2023/09/26 13:51:37;;;;;;;5.23;4.73;;;;;;;;;;5073299;28;20472;-76
2023/09/26 13:54:06;;;;;;;7.90;4.80;;;;;;;;;;5054695;28;20932;-76
2023/09/26 13:56:33;;;;;;;6.50;4.70;;;;;;;;;;5072422;28;20461;-76
2023/09/26 13:59:00;;;;;;;5.10;3.63;;;;;;;;;;5089953;28;20455;-75
2023/09/26 14:01:28;;;;;;;5.43;4.17;;;;;;;;;;5074643;28;20543;-76
2023/09/26 14:03:57;;;;;;;5.23;4.47;;;;;;;;;;5082555;28;20448;-75
2023/09/26 14:06:24;;;;;;;7.90;3.93;;;;;;;;;;5066684;28;20460;-76
2023/09/26 14:08:51;;;;;;;5.80;4.90;;;;;;;;;;5054540;28;20449;-76
2023/09/26 14:11:19;;;;;;;8.10;3.80;;;;;;;;;;5061447;28;20866;-76
2023/09/26 14:13:46;;;;;;;6.47;4.40;;;;;;;;;;5093411;28;20565;-75
2023/09/26 14:16:13;;;;;;;5.03;3.93;;;;;;;;;;5094707;28;20469;-75
2023/09/26 14:18:41;;;;;;;8.33;4.63;;;;;;;;;;5067586;28;20970;-76
2023/09/26 14:21:13;;;;;;;4.80;4.30;;;;;;;;;;5074226;28;20510;-76
2023/09/26 14:23:41;;;;;;;6.73;4.60;;;;;;;;;;5074463;28;20513;-76
2023/09/26 14:26:09;;;;;;;4.53;4.07;;;;;;;;;;5074526;28;20996;-75
2023/09/26 14:28:36;;;;;;;6.90;4.10;;;;;;;;;;5082437;28;20939;-75